createdAt,value
2019-04-22T00:02:40.046Z,34.00
2019-04-22T00:05:18.890Z,34.00
2019-04-22T00:08:08.575Z,34.00
2019-04-22T00:10:55.813Z,34.00
2019-04-22T00:13:32.407Z,34.00
2019-04-22T00:16:07.293Z,34.00
2019-04-22T00:19:01.681Z,34.00
2019-04-22T00:21:26.224Z,34.00
2019-04-22T00:24:05.222Z,34.00
2019-04-22T00:26:48.357Z,34.00
2019-04-22T00:32:12.321Z,34.00
2019-04-22T00:34:54.756Z,34.00
2019-04-22T00:37:35.776Z,34.00
2019-04-22T00:40:06.940Z,34.00
2019-04-22T00:42:47.645Z,34.00
2019-04-22T00:45:26.913Z,34.00
2019-04-22T00:48:09.216Z,34.00
2019-04-22T00:50:58.335Z,34.10
2019-04-22T00:53:23.983Z,34.00
2019-04-22T00:58:45.381Z,34.00
2019-04-22T01:01:26.698Z,34.00
2019-04-22T01:06:38.434Z,34.00
2019-04-22T01:09:17.142Z,34.00
2019-04-22T01:11:55.660Z,34.00
2019-04-22T01:14:40.242Z,34.00
2019-04-22T01:17:11.969Z,34.00
2019-04-22T01:19:56.260Z,34.00
2019-04-22T01:22:30.343Z,34.00
2019-04-22T01:25:08.775Z,34.00
2019-04-22T01:27:43.399Z,34.00
2019-04-22T01:30:14.757Z,34.00
2019-04-22T01:32:45.691Z,34.20
2019-04-22T01:35:34.575Z,34.10
2019-04-22T01:38:13.200Z,33.90
2019-04-22T01:41:07.232Z,34.60
2019-04-22T01:43:53.663Z,34.00
2019-04-22T01:46:25.748Z,34.00
2019-04-22T01:49:02.687Z,34.10
2019-04-22T01:51:47.235Z,34.00
2019-04-22T01:54:22.226Z,34.00
2019-04-22T01:56:52.616Z,34.00
2019-04-22T01:59:23.708Z,34.00
2019-04-22T02:02:09.240Z,34.10
2019-04-22T02:04:55.931Z,34.00
2019-04-22T02:07:28.089Z,34.00
2019-04-22T02:10:05.671Z,33.50
2019-04-22T02:12:43.091Z,34.10
2019-04-22T02:15:20.512Z,34.00
2019-04-22T02:18:06.919Z,34.00
2019-04-22T02:20:40.705Z,34.10
2019-04-22T02:23:45.179Z,34.00
2019-04-22T02:28:52.584Z,34.00
2019-04-22T02:39:20.024Z,34.10
2019-04-22T02:42:03.163Z,34.10
2019-04-22T02:44:36.788Z,34.10
2019-04-22T02:47:20.810Z,34.10
2019-04-22T02:50:00.807Z,34.10
2019-04-22T02:52:37.420Z,34.10
2019-04-22T02:55:41.310Z,34.10
2019-04-22T02:57:49.042Z,34.10
2019-04-22T03:00:35.411Z,34.10
2019-04-22T03:03:21.156Z,34.00
2019-04-22T03:05:56.629Z,34.20
2019-04-22T03:08:30.300Z,34.10
2019-04-22T03:11:12.438Z,34.00
2019-04-22T03:13:47.187Z,34.30
2019-04-22T03:19:08.008Z,34.30
2019-04-22T03:37:56.179Z,34.20
2019-04-22T03:43:48.618Z,34.20
2019-04-22T03:45:45.662Z,34.30
2019-04-22T03:48:35.885Z,34.30
2019-04-22T03:51:25.296Z,34.30
2019-04-22T03:54:02.910Z,34.30
2019-04-22T03:59:21.763Z,34.40
2019-04-22T04:02:02.605Z,34.30
2019-04-22T04:07:11.048Z,34.30
2019-04-22T04:09:38.610Z,34.20
2019-04-22T04:15:07.481Z,34.20
2019-04-22T04:17:45.893Z,34.30
2019-04-22T04:20:21.452Z,34.30
2019-04-22T04:23:04.886Z,34.20
2019-04-22T04:30:41.333Z,34.20
2019-04-22T04:33:22.822Z,34.20
2019-04-22T04:36:02.434Z,34.70
2019-04-22T04:38:48.039Z,34.20
2019-04-22T04:41:26.785Z,34.20
2019-04-22T04:44:03.753Z,34.20
2019-04-22T04:49:19.304Z,34.20
2019-04-22T04:54:31.795Z,34.20
2019-04-22T04:57:11.735Z,34.20
2019-04-22T05:00:18.403Z,34.20
2019-04-22T05:02:28.718Z,34.20
2019-04-22T05:07:40.815Z,34.20
2019-04-22T05:10:26.433Z,34.20
2019-04-22T05:12:56.876Z,34.20
2019-04-22T05:23:25.036Z,34.20
2019-04-22T05:26:04.289Z,34.40
2019-04-22T05:28:38.142Z,34.20
2019-04-22T05:31:30.894Z,34.20
2019-04-22T05:33:56.768Z,34.10
2019-04-22T05:36:32.775Z,34.20
2019-04-22T05:39:13.926Z,34.20
2019-04-22T05:41:48.897Z,34.20
2019-04-22T05:44:32.554Z,34.00
2019-04-22T05:47:05.980Z,34.00
2019-04-22T05:49:45.762Z,33.70
2019-04-22T05:52:21.288Z,33.70
2019-04-22T05:55:03.000Z,32.90
2019-04-22T05:57:37.210Z,32.40
2019-04-22T06:00:29.457Z,32.20
2019-04-22T06:05:39.848Z,33.20
2019-04-22T06:08:14.225Z,33.40
2019-04-22T06:10:54.141Z,32.30
2019-04-22T06:13:23.309Z,32.00
2019-04-22T06:16:09.455Z,32.40
2019-04-22T06:18:47.013Z,33.20
2019-04-22T06:21:28.058Z,33.30
2019-04-22T06:24:11.248Z,33.50
2019-04-22T06:26:59.358Z,33.60
2019-04-22T06:29:19.638Z,33.70
2019-04-22T06:32:17.909Z,33.70
2019-04-22T06:34:35.903Z,33.90
2019-04-22T06:37:18.734Z,33.80
2019-04-22T06:39:53.743Z,33.90
2019-04-22T06:45:17.387Z,34.10
2019-04-22T06:50:30.252Z,34.20
2019-04-22T06:53:05.283Z,34.30
2019-04-22T06:58:36.655Z,34.40
2019-04-22T07:01:17.830Z,34.40
2019-04-22T07:03:45.897Z,34.40
2019-04-22T07:06:23.986Z,34.50
2019-04-22T07:11:29.710Z,34.60
2019-04-22T07:14:04.277Z,34.60
2019-04-22T07:19:28.828Z,34.80
2019-04-22T07:22:09.693Z,34.80
2019-04-22T07:27:18.925Z,34.90
2019-04-22T07:30:03.565Z,34.90
2019-04-22T07:35:19.292Z,35.00
2019-04-22T07:37:48.331Z,35.10
2019-04-22T07:40:34.132Z,35.10
2019-04-22T07:43:15.483Z,35.20
2019-04-22T07:46:00.328Z,35.20
2019-04-22T07:48:35.687Z,35.20
2019-04-22T07:53:39.484Z,35.30
2019-04-22T07:56:18.725Z,35.40
2019-04-22T07:59:00.655Z,35.50
2019-04-22T08:01:30.950Z,35.50
2019-04-22T08:06:54.151Z,35.60
2019-04-22T08:09:37.281Z,35.60
2019-04-22T08:12:02.058Z,35.60
2019-04-22T08:14:49.334Z,35.70
2019-04-22T08:17:44.807Z,35.70
2019-04-22T08:20:03.037Z,35.70
2019-04-22T08:22:47.889Z,35.70
2019-04-22T08:25:16.772Z,35.80
2019-04-22T08:27:56.793Z,35.80
2019-04-22T08:33:15.496Z,35.70
2019-04-22T08:36:07.202Z,35.70
2019-04-22T08:38:37.037Z,35.80
2019-04-22T08:41:23.024Z,35.80
2019-04-22T08:46:33.240Z,35.90
2019-04-22T08:49:30.463Z,35.90
2019-04-22T08:51:49.097Z,35.90
2019-04-22T08:54:31.220Z,36.10
2019-04-22T08:59:43.212Z,36.40
2019-04-22T09:02:27.676Z,36.50
2019-04-22T09:05:10.649Z,36.40
2019-04-22T09:07:47.009Z,36.10
2019-04-22T09:10:21.899Z,35.60
2019-04-22T09:15:34.522Z,35.10
2019-04-22T09:18:14.253Z,35.00
2019-04-22T09:20:58.817Z,34.90
2019-04-22T09:23:32.162Z,34.70
2019-04-22T09:26:08.918Z,34.40
2019-04-22T09:28:54.506Z,34.30
2019-04-22T09:33:59.685Z,33.90
2019-04-22T09:36:40.867Z,33.80
2019-04-22T09:39:28.312Z,33.70
2019-04-22T09:42:00.983Z,33.60
2019-04-22T09:44:36.525Z,33.50
2019-04-22T09:47:12.838Z,33.30
2019-04-22T09:49:54.984Z,33.30
2019-04-22T09:52:29.459Z,33.20
2019-04-22T09:57:47.139Z,33.10
2019-04-22T10:00:20.872Z,32.90
2019-04-22T10:03:06.865Z,33.40
2019-04-22T10:05:48.291Z,33.80
2019-04-22T10:08:29.657Z,34.10
2019-04-22T10:11:04.547Z,34.60
2019-04-22T10:13:45.608Z,35.50
2019-04-22T10:16:17.359Z,35.90
2019-04-22T10:18:52.868Z,35.60
2019-04-22T10:24:09.275Z,35.40
2019-04-22T10:26:46.402Z,35.10
2019-04-22T10:29:33.141Z,35.00
2019-04-22T10:32:00.860Z,34.80
2019-04-22T10:34:26.983Z,35.00
2019-04-22T10:36:58.824Z,34.90
2019-04-22T10:39:42.246Z,34.80
2019-04-22T10:42:11.661Z,34.70
2019-04-22T10:44:49.893Z,34.40
2019-04-22T10:47:27.956Z,34.40
2019-04-22T10:50:06.912Z,34.30
2019-04-22T10:52:43.607Z,34.10
2019-04-22T10:55:21.320Z,34.00
2019-04-22T10:57:57.053Z,33.90
2019-04-22T11:00:33.636Z,33.70
2019-04-22T11:03:11.909Z,33.70
2019-04-22T11:05:50.581Z,33.40
2019-04-22T11:08:33.903Z,33.30
2019-04-22T11:11:18.921Z,33.20
2019-04-22T11:13:44.135Z,32.30
2019-04-22T11:16:21.692Z,32.10
2019-04-22T11:18:59.326Z,32.10
2019-04-22T11:21:36.004Z,31.80
2019-04-22T11:24:12.886Z,31.90
2019-04-22T11:26:49.405Z,31.80
2019-04-22T11:29:25.973Z,31.80
2019-04-22T11:32:04.214Z,31.70
2019-04-22T11:34:41.150Z,31.60
2019-04-22T11:37:18.588Z,31.50
2019-04-22T11:40:06.901Z,31.30
2019-04-22T11:42:34.325Z,31.30
2019-04-22T11:45:13.195Z,31.10
2019-04-22T11:47:51.003Z,31.20
2019-04-22T11:53:13.424Z,31.10
2019-04-22T11:55:50.827Z,31.40
2019-04-22T11:58:28.874Z,31.10
2019-04-22T12:01:06.722Z,31.10
2019-04-22T12:03:44.113Z,31.10
2019-04-22T12:06:20.068Z,31.20
2019-04-22T12:08:57.549Z,31.40
2019-04-22T12:11:36.497Z,31.60
2019-04-22T12:14:13.921Z,31.60
2019-04-22T12:16:50.661Z,31.70
2019-04-22T12:19:27.191Z,31.80
2019-04-22T12:22:04.828Z,31.80
2019-04-22T12:24:42.592Z,31.80
2019-04-22T12:27:20.443Z,31.70
2019-04-22T12:29:58.657Z,31.70
2019-04-22T12:32:35.791Z,31.70
2019-04-22T12:35:13.691Z,31.70
2019-04-22T12:37:55.673Z,32.10
2019-04-22T12:40:39.469Z,31.60
2019-04-22T12:43:09.908Z,31.60
2019-04-22T12:45:45.013Z,31.60
2019-04-22T12:48:21.397Z,31.50
2019-04-22T12:50:58.618Z,31.30
2019-04-22T12:53:36.067Z,31.30
2019-04-22T12:56:13.075Z,31.40
2019-04-22T12:58:49.911Z,31.40
2019-04-22T13:01:26.907Z,31.20
2019-04-22T13:04:09.365Z,30.50
2019-04-22T13:06:42.029Z,30.60
2019-04-22T13:09:19.547Z,30.90
2019-04-22T13:11:57.174Z,31.20
2019-04-22T13:14:34.961Z,31.60
2019-04-22T13:17:12.310Z,32.00
2019-04-22T13:19:49.956Z,32.30
2019-04-22T13:22:27.046Z,32.40
2019-04-22T13:25:06.054Z,31.20
2019-04-22T13:27:42.906Z,31.40
2019-04-22T13:30:20.821Z,31.10
2019-04-22T13:32:57.013Z,30.90
2019-04-22T13:35:34.014Z,30.60
2019-04-22T13:38:11.100Z,30.50
2019-04-22T13:41:02.170Z,30.30
2019-04-22T13:43:27.247Z,30.30
2019-04-22T13:46:05.608Z,30.30
2019-04-22T13:49:11.290Z,30.20
2019-04-22T13:56:55.444Z,30.40
2019-04-22T13:59:26.086Z,30.40
2019-04-22T14:02:12.596Z,30.40
2019-04-22T14:04:50.667Z,30.50
2019-04-22T14:07:26.814Z,30.10
2019-04-22T14:10:06.499Z,30.20
2019-04-22T14:12:42.930Z,30.20
2019-04-22T14:15:20.146Z,30.20
2019-04-22T14:17:56.804Z,30.20
2019-04-22T14:20:34.446Z,30.30
2019-04-22T14:23:12.275Z,30.30
2019-04-22T14:25:50.828Z,30.30
2019-04-22T14:28:28.572Z,30.30
2019-04-22T14:31:06.648Z,30.40
2019-04-22T14:33:46.569Z,30.30
2019-04-22T14:36:23.424Z,30.30
2019-04-22T14:39:01.912Z,30.30
2019-04-22T14:41:54.815Z,30.30
2019-04-22T14:45:52.236Z,30.40
2019-04-22T14:47:20.106Z,30.30
2019-04-22T14:49:52.853Z,30.30
2019-04-22T14:52:33.239Z,30.30
2019-04-22T14:55:01.903Z,30.40
2019-04-22T14:57:29.923Z,30.30
2019-04-22T15:00:08.089Z,30.30
2019-04-22T15:02:45.938Z,30.40
2019-04-22T15:05:22.249Z,30.40
2019-04-22T15:07:59.134Z,30.40
2019-04-22T15:10:36.281Z,30.30
2019-04-22T15:13:13.443Z,30.30
2019-04-22T15:16:15.958Z,30.50
2019-04-22T15:19:00.236Z,30.50
2019-04-22T15:21:36.958Z,30.40
2019-04-22T15:24:27.569Z,30.40
2019-04-22T15:27:04.811Z,30.40
2019-04-22T15:29:43.146Z,30.50
2019-04-22T15:32:19.308Z,30.40
2019-04-22T15:34:55.532Z,30.40
2019-04-22T15:37:33.183Z,30.30
2019-04-22T15:40:12.939Z,30.40
2019-04-22T15:42:50.742Z,30.40
2019-04-22T15:45:28.716Z,30.30
2019-04-22T15:48:06.133Z,30.30
2019-04-22T15:50:42.645Z,30.30
2019-04-22T15:53:20.100Z,30.30
2019-04-22T15:55:56.629Z,30.30
2019-04-22T15:58:33.545Z,30.30
2019-04-22T16:01:17.732Z,30.30
2019-04-22T16:03:47.486Z,30.30
2019-04-22T16:06:26.056Z,30.30
2019-04-22T16:09:06.810Z,30.40
2019-04-22T16:11:43.300Z,30.40
2019-04-22T16:14:23.883Z,30.30
2019-04-22T16:16:58.924Z,30.30
2019-04-22T16:19:36.950Z,30.30
2019-04-22T16:22:18.556Z,30.30
2019-04-22T16:25:11.278Z,30.30
2019-04-22T16:27:50.157Z,30.90
2019-04-22T16:30:27.782Z,30.30
2019-04-22T16:33:05.721Z,30.30
2019-04-22T16:35:42.650Z,30.30
2019-04-22T16:38:19.185Z,30.40
2019-04-22T16:41:02.852Z,30.00
2019-04-22T16:43:40.636Z,30.40
2019-04-22T16:46:17.622Z,30.40
2019-04-22T16:48:54.186Z,30.50
2019-04-22T16:51:32.071Z,30.50
2019-04-22T16:54:08.913Z,30.50
2019-04-22T16:56:45.847Z,30.40
2019-04-22T16:59:22.577Z,30.40
2019-04-22T17:02:35.100Z,30.50
2019-04-22T17:05:35.846Z,30.50
2019-04-22T17:08:14.179Z,30.50
2019-04-22T17:10:53.672Z,30.40
2019-04-22T17:13:32.733Z,30.60
2019-04-22T17:16:09.734Z,30.40
2019-04-22T17:18:47.099Z,30.50
2019-04-22T17:21:23.600Z,30.60
2019-04-22T17:24:01.381Z,30.60
2019-04-22T17:26:38.766Z,30.50
2019-04-22T17:29:18.664Z,30.20
2019-04-22T17:32:00.656Z,30.70
2019-04-22T17:34:33.718Z,30.70
2019-04-22T17:37:19.267Z,30.60
2019-04-22T17:40:13.275Z,30.70
2019-04-22T17:42:49.516Z,30.60
2019-04-22T17:45:44.996Z,30.50
2019-04-22T17:48:42.039Z,30.60
2019-04-22T17:51:29.859Z,30.70
2019-04-22T17:56:42.239Z,30.60
2019-04-22T17:59:17.217Z,30.70
2019-04-22T18:01:48.889Z,30.70
2019-04-22T18:04:10.490Z,30.60
2019-04-22T18:07:13.354Z,30.70
2019-04-22T18:10:23.857Z,30.70
2019-04-22T18:12:33.571Z,30.70
2019-04-22T18:15:06.733Z,30.60
2019-04-22T18:17:41.092Z,30.70
2019-04-22T18:20:14.514Z,31.20
2019-04-22T18:22:49.370Z,30.80
2019-04-22T18:25:27.712Z,30.80
2019-04-22T18:28:18.788Z,30.70
2019-04-22T18:30:47.773Z,30.50
2019-04-22T18:33:31.301Z,30.40
2019-04-22T18:36:03.895Z,30.60
2019-04-22T18:38:56.209Z,30.50
2019-04-22T18:41:17.836Z,30.20
2019-04-22T18:44:06.238Z,30.60
2019-04-22T18:46:36.918Z,30.20
2019-04-22T18:49:15.271Z,30.10
2019-04-22T18:52:19.899Z,30.10
2019-04-22T18:55:17.880Z,30.00
2019-04-22T18:58:05.437Z,29.90
2019-04-22T19:00:34.115Z,29.90
2019-04-22T19:03:17.691Z,29.90
2019-04-22T19:06:13.174Z,30.60
2019-04-22T19:11:35.456Z,29.80
2019-04-22T19:14:14.355Z,29.70
2019-04-22T19:16:45.506Z,29.80
2019-04-22T19:21:57.813Z,29.70
2019-04-22T19:24:39.462Z,29.70
2019-04-22T19:27:23.259Z,29.70
2019-04-22T19:30:05.225Z,29.30
2019-04-22T19:32:38.093Z,29.60
2019-04-22T19:35:14.444Z,29.70
2019-04-22T19:37:49.137Z,29.60
2019-04-22T19:40:55.566Z,29.70
2019-04-22T19:43:25.498Z,29.80
2019-04-22T19:45:58.958Z,29.70
2019-04-22T19:48:38.961Z,29.80
2019-04-22T19:51:15.683Z,29.70
2019-04-22T19:53:52.422Z,29.60
2019-04-22T19:56:22.965Z,29.60
2019-04-22T19:59:07.052Z,29.80
2019-04-22T20:02:10.197Z,29.80
2019-04-22T20:05:00.384Z,29.70
2019-04-22T20:07:40.530Z,29.60
2019-04-22T20:10:25.070Z,29.70
2019-04-22T20:12:56.876Z,29.80
2019-04-22T20:15:34.110Z,29.90
2019-04-22T20:18:27.035Z,30.00
2019-04-22T20:20:58.497Z,30.30
2019-04-22T20:23:25.664Z,30.50
2019-04-22T20:26:10.416Z,30.60
2019-04-22T20:28:52.554Z,30.60
2019-04-22T20:31:31.826Z,30.60
2019-04-22T20:34:14.696Z,30.20
2019-04-22T20:37:01.475Z,30.30
2019-04-22T20:39:33.371Z,29.80
2019-04-22T20:42:16.697Z,30.00
2019-04-22T20:44:47.298Z,30.10
2019-04-22T20:47:18.136Z,30.00
2019-04-22T20:50:04.468Z,29.90
2019-04-22T20:52:50.373Z,30.00
2019-04-22T20:55:13.094Z,29.50
2019-04-22T20:57:53.062Z,29.60
2019-04-22T21:00:25.252Z,29.80
2019-04-22T21:02:59.750Z,29.90
2019-04-22T21:05:40.064Z,29.70
2019-04-22T21:08:30.679Z,30.20
2019-04-22T21:10:58.527Z,30.30
2019-04-22T21:13:41.021Z,30.50
2019-04-22T21:16:26.843Z,30.50
2019-04-22T21:18:56.604Z,30.50
2019-04-22T21:21:44.979Z,30.60
2019-04-22T21:24:18.585Z,30.60
2019-04-22T21:26:57.086Z,30.50
2019-04-22T21:29:30.670Z,30.60
2019-04-22T21:32:15.661Z,30.60
2019-04-22T21:35:03.235Z,30.60
2019-04-22T21:37:57.068Z,30.50
2019-04-22T21:40:05.233Z,30.60
2019-04-22T21:42:53.080Z,30.60
2019-04-22T21:45:21.715Z,31.30
2019-04-22T21:48:13.893Z,30.70
2019-04-22T21:53:33.052Z,30.70
2019-04-22T21:56:11.617Z,30.80
2019-04-22T21:58:53.255Z,30.80
2019-04-22T22:04:20.737Z,30.90
2019-04-22T22:06:48.876Z,30.90
2019-04-22T22:09:39.930Z,30.90
2019-04-22T22:12:11.923Z,30.90
2019-04-22T22:15:00.543Z,31.00
2019-04-22T22:17:31.411Z,31.00
2019-04-22T22:20:06.195Z,31.00
2019-04-22T22:23:20.930Z,31.00
2019-04-22T22:25:28.794Z,31.00
2019-04-22T22:28:07.750Z,31.10
2019-04-22T22:33:24.250Z,31.80
2019-04-22T22:36:00.957Z,31.10
2019-04-22T22:38:35.170Z,31.20
2019-04-22T22:41:00.056Z,31.20
2019-04-22T22:43:43.264Z,31.20
2019-04-22T22:46:28.417Z,31.30
2019-04-22T22:49:21.854Z,31.20
2019-04-22T22:52:02.245Z,31.30
2019-04-22T22:54:34.507Z,31.30
2019-04-22T22:57:17.458Z,31.30
2019-04-22T22:59:50.229Z,31.30
2019-04-22T23:02:22.407Z,31.40
2019-04-22T23:05:05.900Z,31.40
2019-04-22T23:07:47.818Z,31.30
2019-04-22T23:10:24.806Z,31.30
2019-04-22T23:13:08.452Z,31.40
2019-04-22T23:15:35.876Z,32.10
2019-04-22T23:17:58.397Z,31.30
2019-04-22T23:20:41.427Z,31.40
2019-04-22T23:23:33.277Z,31.40
2019-04-22T23:26:10.466Z,31.40
2019-04-22T23:28:52.370Z,31.40
2019-04-22T23:31:37.634Z,31.50
2019-04-22T23:34:22.718Z,31.50
2019-04-22T23:37:15.145Z,31.50
2019-04-22T23:39:58.649Z,31.50
2019-04-22T23:42:33.786Z,31.50
2019-04-22T23:45:13.914Z,31.60
2019-04-22T23:47:44.863Z,31.50
2019-04-22T23:50:31.067Z,31.50
2019-04-22T23:53:58.091Z,31.60
2019-04-22T23:56:16.937Z,31.50
2019-04-22T23:59:04.767Z,31.60
